createdAt,value
2023-05-16T00:00:00.469Z,0
2023-05-16T00:05:00.441Z,0
2023-05-16T00:10:00.462Z,0
2023-05-16T00:15:00.487Z,0
2023-05-16T00:20:00.471Z,0
2023-05-16T00:25:00.476Z,0
2023-05-16T00:30:00.481Z,0
2023-05-16T00:35:00.461Z,0
2023-05-16T00:40:00.454Z,0
2023-05-16T00:45:00.455Z,0
2023-05-16T00:50:00.462Z,0
2023-05-16T00:55:00.497Z,0
2023-05-16T01:00:00.484Z,0
2023-05-16T01:05:00.460Z,0
2023-05-16T01:10:00.497Z,0
2023-05-16T01:15:00.436Z,0
2023-05-16T01:20:00.495Z,0
2023-05-16T01:25:00.538Z,0
2023-05-16T01:30:00.435Z,0
2023-05-16T01:35:00.456Z,0
2023-05-16T01:40:00.505Z,0
2023-05-16T01:45:00.424Z,0
2023-05-16T01:50:00.444Z,0
2023-05-16T01:55:00.581Z,0
2023-05-16T02:00:00.456Z,0
2023-05-16T02:05:00.443Z,0
2023-05-16T02:10:00.506Z,0
2023-05-16T02:15:00.454Z,0
2023-05-16T02:20:00.453Z,0
2023-05-16T02:25:00.442Z,0
2023-05-16T02:30:00.540Z,0
2023-05-16T02:35:00.499Z,0
2023-05-16T02:40:00.466Z,0
2023-05-16T02:45:00.456Z,0
2023-05-16T02:50:00.526Z,0
2023-05-16T02:55:20.275Z,0
2023-05-16T03:00:00.443Z,0
2023-05-16T03:05:00.645Z,3
2023-05-16T03:10:01.320Z,3
2023-05-16T03:15:00.521Z,7
2023-05-16T03:20:00.565Z,14
2023-05-16T03:25:00.506Z,35
2023-05-16T03:30:00.466Z,58
2023-05-16T03:35:00.502Z,97
2023-05-16T03:40:00.599Z,136
2023-05-16T03:45:00.460Z,189
2023-05-16T03:50:00.488Z,263
2023-05-16T03:55:00.493Z,430
2023-05-16T04:00:00.760Z,563
2023-05-16T04:05:00.462Z,563
2023-05-16T04:10:00.523Z,1019
2023-05-16T04:15:00.466Z,1145
2023-05-16T04:20:00.446Z,1451
2023-05-16T04:25:00.497Z,1843
2023-05-16T04:30:00.449Z,1130
2023-05-16T04:35:00.451Z,1661
2023-05-16T04:40:00.531Z,3574
2023-05-16T04:45:00.524Z,17632
2023-05-16T04:50:00.490Z,22346
2023-05-16T04:55:00.494Z,11249
2023-05-16T05:00:00.447Z,8568
2023-05-16T05:05:00.498Z,13655
2023-05-16T05:10:00.450Z,6595
2023-05-16T05:15:00.470Z,22888
2023-05-16T05:20:02.905Z,8570
2023-05-16T05:25:00.616Z,7698
2023-05-16T05:30:00.449Z,40281
2023-05-16T05:35:00.454Z,38133
2023-05-16T05:40:00.440Z,31412
2023-05-16T05:45:00.529Z,16018
2023-05-16T05:50:00.472Z,15871
2023-05-16T05:55:00.503Z,7223
2023-05-16T06:00:00.515Z,8043
2023-05-16T06:05:00.646Z,7705
2023-05-16T06:10:01.250Z,5293
2023-05-16T06:15:00.487Z,3598
2023-05-16T06:20:00.473Z,4483
2023-05-16T06:25:00.541Z,5653
2023-05-16T06:30:00.458Z,5843
2023-05-16T06:35:00.468Z,7518
2023-05-16T06:40:00.520Z,7807
2023-05-16T06:45:00.557Z,5188
2023-05-16T06:50:01.014Z,7688
2023-05-16T06:55:00.538Z,2846
2023-05-16T07:00:00.451Z,1740
2023-05-16T07:05:00.514Z,1955
2023-05-16T07:10:00.521Z,1978
2023-05-16T07:15:00.463Z,1733
2023-05-16T07:20:02.855Z,1350
2023-05-16T07:25:00.526Z,6209
2023-05-16T07:30:00.581Z,5333
2023-05-16T07:35:00.490Z,8952
2023-05-16T07:40:00.480Z,9734
2023-05-16T07:45:00.513Z,70778
2023-05-16T07:50:00.447Z,67983
2023-05-16T07:55:00.494Z,7239
2023-05-16T08:00:00.482Z,69582
2023-05-16T08:05:00.470Z,71680
2023-05-16T08:10:00.503Z,71680
2023-05-16T08:15:00.562Z,9156
2023-05-16T08:20:00.452Z,67189
2023-05-16T08:25:00.512Z,67189
2023-05-16T08:30:00.455Z,67189
2023-05-16T08:35:00.448Z,69991
2023-05-16T08:40:00.421Z,53988
2023-05-16T08:45:00.525Z,2323
2023-05-16T08:50:00.531Z,4626
2023-05-16T08:55:10.163Z,8453
2023-05-16T09:00:00.464Z,66344
2023-05-16T09:05:00.456Z,62015
2023-05-16T09:10:00.682Z,62015
2023-05-16T09:15:00.526Z,62015
2023-05-16T09:20:00.503Z,57783
2023-05-16T09:25:00.541Z,5502
2023-05-16T09:30:00.462Z,6976
2023-05-16T09:35:00.518Z,10116
2023-05-16T09:40:00.808Z,48273
2023-05-16T09:45:01.611Z,55412
2023-05-16T09:50:00.471Z,49215
2023-05-16T09:55:00.546Z,17014
2023-05-16T10:00:00.484Z,44782
2023-05-16T10:05:00.559Z,11236
2023-05-16T10:10:00.539Z,45206
2023-05-16T10:15:00.530Z,11334
2023-05-16T10:20:00.483Z,7101
2023-05-16T10:25:00.547Z,9508
2023-05-16T10:30:00.560Z,9649
2023-05-16T10:35:00.547Z,15864
2023-05-16T10:40:00.450Z,34491
2023-05-16T10:45:05.933Z,30889
2023-05-16T10:50:00.557Z,11368
2023-05-16T10:55:00.649Z,6863
2023-05-16T11:00:00.762Z,28980
2023-05-16T11:05:00.489Z,15970
2023-05-16T11:10:01.341Z,19788
2023-05-16T11:15:00.453Z,20413
2023-05-16T11:20:00.561Z,8600
2023-05-16T11:25:00.546Z,16103
2023-05-16T11:30:03.132Z,14997
2023-05-16T11:35:00.645Z,5005
2023-05-16T11:40:00.476Z,7890
2023-05-16T11:45:00.481Z,7044
2023-05-16T11:50:00.455Z,7997
2023-05-16T11:55:00.619Z,6196
2023-05-16T12:00:00.514Z,8492
2023-05-16T12:05:00.694Z,10287
2023-05-16T12:10:00.446Z,7194
2023-05-16T12:15:00.630Z,7900
2023-05-16T12:20:00.780Z,8395
2023-05-16T12:25:00.540Z,6615
2023-05-16T12:30:00.565Z,6852
2023-05-16T12:35:00.731Z,7138
2023-05-16T12:40:00.564Z,8196
2023-05-16T12:45:00.925Z,9654
2023-05-16T12:50:00.605Z,6894
2023-05-16T12:55:00.568Z,9895
2023-05-16T13:00:00.614Z,4054
2023-05-16T13:05:01.671Z,1950
2023-05-16T13:10:00.649Z,1739
2023-05-16T13:15:00.564Z,3702
2023-05-16T13:20:00.604Z,7243
2023-05-16T13:25:00.707Z,2773
2023-05-16T13:30:00.662Z,1912
2023-05-16T13:35:00.473Z,4514
2023-05-16T13:40:00.528Z,4514
2023-05-16T13:45:00.551Z,4503
2023-05-16T13:50:00.532Z,5719
2023-05-16T13:55:00.464Z,5073
2023-05-16T14:00:21.958Z,5073
2023-05-16T14:05:00.531Z,5295
2023-05-16T14:10:00.536Z,5295
2023-05-16T14:15:00.515Z,5713
2023-05-16T14:20:00.575Z,3997
2023-05-16T14:25:00.557Z,4530
2023-05-16T14:30:00.544Z,7514
2023-05-16T14:35:00.837Z,5959
2023-05-16T14:40:00.591Z,2507
2023-05-16T14:45:00.888Z,2229
2023-05-16T14:50:00.556Z,2229
2023-05-16T14:55:00.577Z,3611
2023-05-16T15:00:00.543Z,5212
2023-05-16T15:05:00.581Z,5388
2023-05-16T15:10:00.459Z,4392
2023-05-16T15:15:00.454Z,4615
2023-05-16T15:20:00.522Z,3130
2023-05-16T15:25:00.529Z,1485
2023-05-16T15:30:00.495Z,3127
2023-05-16T15:35:00.548Z,3517
2023-05-16T15:40:00.464Z,2762
2023-05-16T15:45:00.461Z,3500
2023-05-16T15:50:00.513Z,2755
2023-05-16T15:55:00.493Z,2442
2023-05-16T16:00:00.635Z,2428
2023-05-16T16:05:00.506Z,2729
2023-05-16T16:10:00.667Z,1700
2023-05-16T16:15:00.527Z,808
2023-05-16T16:20:00.534Z,564
2023-05-16T16:25:00.738Z,715
2023-05-16T16:30:00.566Z,1034
2023-05-16T16:35:00.444Z,1668
2023-05-16T16:40:00.538Z,1668
2023-05-16T16:45:00.448Z,1668
2023-05-16T16:50:00.528Z,1484
2023-05-16T16:55:00.459Z,1036
2023-05-16T17:00:00.603Z,1036
2023-05-16T17:05:00.485Z,1036
2023-05-16T17:10:00.701Z,1036
2023-05-16T17:15:00.451Z,647
2023-05-16T17:20:00.637Z,510
2023-05-16T17:25:00.514Z,510
2023-05-16T17:30:00.448Z,431
2023-05-16T17:35:00.488Z,366
2023-05-16T17:40:00.472Z,646
2023-05-16T17:45:00.470Z,1179
2023-05-16T17:50:00.957Z,1179
2023-05-16T17:55:00.728Z,1179
2023-05-16T18:00:00.575Z,638
2023-05-16T18:05:00.450Z,812
2023-05-16T18:10:00.697Z,1028
2023-05-16T18:15:00.465Z,1028
2023-05-16T18:20:00.757Z,1028
2023-05-16T18:25:00.525Z,628
2023-05-16T18:30:02.543Z,473
2023-05-16T18:35:01.162Z,402
2023-05-16T18:40:00.919Z,479
2023-05-16T18:45:00.703Z,479
2023-05-16T18:50:00.607Z,479
2023-05-16T18:55:00.576Z,401
2023-05-16T19:00:00.605Z,340
2023-05-16T19:05:01.572Z,289
2023-05-16T19:10:02.878Z,208
2023-05-16T19:15:00.475Z,149
2023-05-16T19:20:00.613Z,149
2023-05-16T19:25:00.485Z,106
2023-05-16T19:30:00.582Z,64
2023-05-16T19:35:00.652Z,40
2023-05-16T19:40:00.528Z,26
2023-05-16T19:45:00.528Z,19
2023-05-16T19:50:00.462Z,12
2023-05-16T19:55:00.453Z,5
2023-05-16T20:00:00.447Z,5
2023-05-16T20:10:00.482Z,5
2023-05-16T20:15:00.460Z,5
2023-05-16T20:20:00.561Z,5
2023-05-16T20:25:00.468Z,5
2023-05-16T20:30:00.431Z,0
2023-05-16T20:35:00.540Z,0
2023-05-16T20:40:00.450Z,0
2023-05-16T20:45:00.536Z,0
2023-05-16T20:50:00.460Z,0
2023-05-16T20:55:00.460Z,0
2023-05-16T21:00:00.453Z,0
2023-05-16T21:05:14.545Z,0
2023-05-16T21:10:00.460Z,0
2023-05-16T21:15:00.518Z,0
2023-05-16T21:20:00.460Z,0
2023-05-16T21:25:00.486Z,0
2023-05-16T21:35:00.451Z,0
2023-05-16T21:40:00.455Z,0
2023-05-16T21:45:00.542Z,0
2023-05-16T21:50:00.488Z,0
2023-05-16T21:55:00.461Z,0
2023-05-16T22:00:00.453Z,0
2023-05-16T22:05:00.626Z,0
2023-05-16T22:10:00.500Z,0
2023-05-16T22:15:00.483Z,0
2023-05-16T22:20:00.513Z,0
2023-05-16T22:25:00.436Z,0
2023-05-16T22:30:00.477Z,0
2023-05-16T22:35:00.611Z,0
2023-05-16T22:40:00.619Z,0
2023-05-16T22:45:00.555Z,0
2023-05-16T22:50:00.472Z,0
2023-05-16T22:55:00.628Z,0
2023-05-16T23:00:00.450Z,0
2023-05-16T23:05:00.523Z,0
2023-05-16T23:10:00.570Z,0
2023-05-16T23:15:00.474Z,0
2023-05-16T23:20:00.628Z,0
2023-05-16T23:25:00.522Z,0
2023-05-16T23:30:00.467Z,0
2023-05-16T23:35:00.470Z,0
2023-05-16T23:40:00.485Z,0
2023-05-16T23:45:00.513Z,0
2023-05-16T23:50:00.530Z,0
2023-05-16T23:55:00.496Z,0
